Latest Weather Observations for Orange Airport

IDN60801

Issued at 10:02 pm EST Friday 27 May 2016 (issued every 30 minutes, with the page automatically refreshed every 10 minutes)

About weather observations | Map of weather stations | Latest weather observations for NSW | Other Formats
Station Details ID: 063303 Name: ORANGE AIRPORT AWS Lat: -33.38 Lon: 149.13 Height: 944.65 m
Data from the previous 72 hours. | See also: Recent months at Orange Airport
Date/Time
EST
Temp
°C
App
Temp
°C
Dew
Point
Rel
Hum
%
Delta-T
°C
Wind Press
QNH
hPa
Press
MSL
hPa
Rain
since 9 am
mm
Dir
 
Spd
km/h
Gust
km/h
Spd
kts
Gust
kts
27/09:47pm 5.8 1.0 4.4 91 0.6 W 19 26 10 14 1010.9 1010.6 0.0
27/09:30pm 5.8 0.8 4.6 92 0.5 W 20 26 11 14 1010.9 1010.6 0.0
27/09:00pm 5.5 0.1 4.3 92 0.5 W 22 30 12 16 1010.8 1010.4 0.0
27/08:30pm 5.4 -0.4 4.2 92 0.5 W 24 32 13 17 1010.6 1010.2 0.0
27/08:00pm 5.3 0.2 4.1 92 0.5 WSW 20 32 11 17 1010.4 1010.0 0.0
27/07:30pm 5.2 -0.3 4.0 92 0.5 W 22 30 12 16 1010.3 1009.9 0.0
27/07:00pm 5.1 0.0 4.1 93 0.5 W 20 30 11 16 1009.9 1009.6 0.0
27/06:45pm 4.6 -0.6 3.4 92 0.5 W 20 32 11 17 1009.7 1009.3 0.0
27/06:30pm 4.5 -0.7 3.3 92 0.5 W 20 28 11 15 1009.5 1009.1 0.0
27/06:00pm 5.0 -1.3 3.7 91 0.6 W 26 33 14 18 1009.3 1008.9 0.0
27/05:30pm 5.3 -0.7 3.3 87 0.9 W 24 37 13 20 1009.3 1008.9 0.0
27/05:00pm 5.5 -0.1 3.5 87 0.9 W 22 30 12 16 1009.0 1008.5 0.0
27/04:30pm 6.0 0.0 3.2 82 1.2 WSW 24 35 13 19 1008.6 1008.2 0.0
27/04:00pm 6.6 -0.9 3.6 81 1.4 W 32 48 17 26 1008.3 1007.9 0.0
27/03:46pm 6.7 -0.1 3.3 79 1.5 W 28 46 15 25 1008.2 1007.8 0.0
27/03:30pm 6.3 -0.8 3.8 84 1.1 WSW 30 43 16 23 1008.1 1007.6 0.0
27/03:00pm 7.4 -0.7 3.3 75 1.9 WSW 35 46 19 25 1007.5 1007.1 0.0
27/02:30pm 7.1 -1.3 3.7 79 1.5 WSW 37 52 20 28 1007.5 1007.1 0.0
27/02:00pm 7.0 -2.8 2.5 73 2.0 WSW 43 61 23 33 1007.3 1006.9 0.0
27/01:30pm 6.9 -2.5 2.4 73 2.0 WSW 41 59 22 32 1007.2 1006.8 0.0
27/01:10pm 7.3 -1.0 4.3 81 1.4 WSW 37 56 20 30 1007.3 1006.9 0.0
27/01:01pm 6.6 -2.2 3.4 80 1.4 WSW 39 54 21 29 1007.3 1006.9 0.0
27/01:00pm 6.3 -2.6 3.1 80 1.4 WSW 39 54 21 29 1007.3 1006.9 0.0
27/12:40pm 6.5 -2.3 3.7 82 1.3 WSW 39 61 21 33 1007.3 1006.9 0.0
27/12:38pm 6.5 -2.3 3.5 81 1.3 WSW 39 61 21 33 1007.3 1006.9 0.0
27/12:34pm 7.3 -1.3 4.4 82 1.3 WSW 39 61 21 33 1007.3 1006.9 0.0
27/12:30pm 6.5 -2.6 3.8 83 1.2 WSW 41 54 22 29 1007.3 1006.9 0.0
27/12:10pm 6.3 -3.3 3.3 81 1.3 WSW 43 61 23 33 1007.2 1006.8 0.0
27/12:00pm 6.1 -3.2 3.1 81 1.3 WSW 41 54 22 29 1007.2 1006.8 0.0
27/11:45am 6.1 -2.7 3.6 84 1.1 WSW 39 57 21 31 1007.2 1006.8 0.0
27/11:30am 6.0 -3.6 3.3 83 1.2 WSW 43 59 23 32 1007.3 1006.9 0.0
27/11:10am 5.9 -3.7 3.4 84 1.1 WSW 43 61 23 33 1007.4 1007.0 0.0
27/11:00am 5.9 -3.6 3.7 86 1.0 WSW 43 56 23 30 1007.6 1007.2 0.0
27/10:30am 5.3 -4.5 3.2 86 0.9 WSW 44 59 24 32 1007.9 1007.4 0.0
27/10:11am 5.4 -3.9 3.1 85 1.0 WSW 41 54 22 29 1007.7 1007.3 0.0
27/10:00am 5.5 -3.4 3.3 86 1.0 SW 39 54 21 29 1007.9 1007.4 0.0
27/09:30am 4.8 -3.3 3.3 90 0.7 SW 35 50 19 27 1007.9 1007.4 0.0
27/09:07am 4.2 -3.9 3.0 92 0.5 SW 35 52 19 28 1007.9 1007.4 0.0
27/09:00am 4.1 -4.4 2.9 92 0.5 SW 37 52 20 28 1007.7 1007.3 15.0
27/08:54am 4.0 -3.8 2.8 92 0.5 SW 33 43 18 23 1007.7 1007.3 15.0
27/08:52am 4.2 -3.6 3.0 92 0.5 SW 33 43 18 23 1007.7 1007.3 15.0
27/08:30am 3.6 -4.2 2.6 93 0.4 SW 33 48 18 26 1007.6 1007.2 15.0
27/08:00am 3.4 -4.5 2.4 93 0.4 SW 33 44 18 24 1007.3 1006.9 15.0
27/07:48am 3.4 -4.3 2.4 93 0.4 SW 32 46 17 25 1007.3 1006.9 15.0
27/07:30am 3.0 -4.8 2.0 93 0.4 SW 32 43 17 23 1007.3 1006.9 15.0
27/07:00am 2.9 -4.5 1.9 93 0.4 WSW 30 39 16 21 1007.1 1006.6 15.0
27/06:30am 3.2 -4.5 2.2 93 0.4 SW 32 43 17 23 1007.0 1006.5 15.0
27/06:09am 3.2 -4.6 2.0 92 0.5 SW 32 43 17 23 1006.9 1006.4 15.0
27/06:00am 3.3 -4.6 2.3 93 0.4 WSW 33 46 18 25 1006.8 1006.3 15.0
27/05:30am 3.8 -4.4 2.8 93 0.4 WSW 35 46 19 25 1006.7 1006.2 15.0
27/05:00am 3.8 -3.8 2.8 93 0.4 WSW 32 43 17 23 1006.3 1005.9 15.0
27/04:30am 4.3 -3.4 3.3 93 0.4 SW 33 46 18 25 1006.1 1005.6 15.0
27/04:00am 4.6 -3.4 3.6 93 0.4 SW 35 50 19 27 1005.9 1005.4 15.0
27/03:30am 4.8 -3.2 3.8 93 0.4 WSW 35 50 19 27 1005.9 1005.4 15.0
27/03:00am 5.1 -2.8 4.1 93 0.5 WSW 35 50 19 27 1005.9 1005.4 15.0
27/02:30am 5.1 -2.5 4.1 93 0.4 WSW 33 50 18 27 1006.0 1005.5 15.0
27/02:01am 5.2 -2.2 4.2 93 0.5 SW 32 50 17 27 1006.1 1005.6 15.0
27/02:00am 5.2 -2.3 4.2 93 0.5 WSW 33 50 18 27 1006.1 1005.6 15.0
27/01:30am 5.4 -2.5 4.4 93 0.5 WSW 35 50 19 27 1006.0 1005.5 15.0
27/01:02am 5.3 -2.0 4.3 93 0.5 WSW 32 44 17 24 1006.1 1005.6 15.0
27/01:00am 5.3 -2.0 4.3 93 0.5 WSW 32 44 17 24 1006.1 1005.6 15.0
27/12:30am 5.3 -2.0 4.3 93 0.5 WSW 32 48 17 26 1006.4 1006.0 15.0
27/12:27am 5.4 -2.1 4.4 93 0.5 WSW 33 52 18 28 1006.4 1006.0 15.0
27/12:00am 5.6 -2.3 4.6 93 0.5 WSW 35 46 19 25 1006.7 1006.2 15.0
 
Date/Time
EST
Temp
°C
App
Temp
°C
Dew
Point
Rel
Hum
%
Delta-T
°C
Wind Press
QNH
hPa
Press
MSL
hPa
Rain
since 9 am
mm
Dir
 
Spd
km/h
Gust
km/h
Spd
kts
Gust
kts
26/11:46pm 5.7 -2.1 4.7 93 0.5 WSW 35 46 19 25 1006.8 1006.3 15.0
26/11:30pm 5.7 -2.2 4.5 92 0.5 WSW 35 56 19 30 1006.7 1006.2 15.0
26/11:27pm 5.9 -1.9 4.7 92 0.6 WSW 35 56 19 30 1006.7 1006.2 15.0
26/11:00pm 6.5 -1.2 5.5 93 0.5 WSW 35 48 19 26 1006.5 1006.1 15.0
26/10:30pm 7.0 0.0 5.9 93 0.5 WSW 32 43 17 23 1006.9 1006.4 14.8
26/10:00pm 7.4 -0.1 6.3 93 0.5 WSW 35 43 19 23 1006.5 1006.1 14.8
26/09:48pm 7.4 0.9 6.3 93 0.5 WSW 30 48 16 26 1006.5 1006.1 14.6
26/09:30pm 7.4 1.2 6.3 93 0.5 WSW 28 39 15 21 1006.7 1006.2 14.4
26/09:00pm 7.7 1.6 6.6 93 0.5 WSW 28 41 15 22 1006.5 1006.1 14.2
26/08:33pm 7.6 0.1 6.5 93 0.5 W 35 54 19 29 1006.7 1006.2 13.6
26/08:30pm 7.7 -0.1 6.6 93 0.5 WSW 37 54 20 29 1006.7 1006.2 13.6
26/08:24pm 7.9 0.9 6.8 93 0.5 WSW 33 52 18 28 1006.5 1006.1 13.6
26/08:10pm 8.0 2.0 6.9 93 0.5 W 28 43 15 23 1006.7 1006.2 13.4
26/08:00pm 7.8 3.2 6.7 93 0.5 W 20 30 11 16 1006.5 1006.1 13.4
26/07:30pm 8.1 2.5 7.0 93 0.5 W 26 35 14 19 1006.3 1005.9 11.6
26/07:25pm 8.1 2.8 7.0 93 0.5 W 24 39 13 21 1006.2 1005.7 11.6
26/07:21pm 8.2 3.0 7.1 93 0.5 W 24 39 13 21 1006.2 1005.7 11.4
26/07:02pm 8.2 3.7 7.1 93 0.5 W 20 30 11 16 1006.1 1005.6 11.4
26/07:00pm 8.2 3.7 7.1 93 0.5 W 20 30 11 16 1006.1 1005.6 11.2
26/06:30pm 8.3 4.4 7.2 93 0.5 WNW 17 20 9 11 1005.9 1005.4 11.2
26/06:00pm 8.2 5.8 7.1 93 0.5 W 9 13 5 7 1005.9 1005.4 11.2
26/05:30pm 8.3 5.2 7.2 93 0.5 WNW 13 19 7 10 1005.6 1005.1 11.2
26/05:00pm 8.4 4.5 7.3 93 0.5 W 17 26 9 14 1005.2 1004.7 11.2
26/04:59pm 8.4 4.9 7.3 93 0.5 W 15 24 8 13 1005.2 1004.7 11.2
26/04:31pm 8.3 4.4 7.2 93 0.5 NW 17 20 9 11 1005.0 1004.5 10.4
26/04:30pm 8.4 4.5 7.3 93 0.5 NW 17 20 9 11 1005.0 1004.5 10.4
26/04:22pm 8.3 4.4 7.2 93 0.5 NW 17 20 9 11 1005.1 1004.6 10.2
26/04:00pm 8.4 3.6 7.3 93 0.5 NW 22 28 12 15 1004.9 1004.4 10.2
26/03:30pm 8.4 4.2 7.3 93 0.5 NW 19 24 10 13 1004.7 1004.2 10.2
26/03:00pm 8.0 3.5 6.9 93 0.5 NW 20 30 11 16 1004.8 1004.3 10.2
26/02:30pm 7.9 2.6 6.8 93 0.5 NW 24 32 13 17 1004.8 1004.3 10.2
26/02:00pm 8.1 2.5 7.0 93 0.5 NW 26 35 14 19 1004.9 1004.4 10.0
26/01:30pm 7.9 1.8 6.8 93 0.5 NW 28 35 15 19 1005.1 1004.6 10.0
26/01:00pm 7.5 0.4 6.4 93 0.5 NW 33 46 18 25 1005.2 1004.7 9.8
26/12:30pm 7.3 0.2 6.2 93 0.5 NW 33 44 18 24 1005.9 1005.4 9.2
26/12:00pm 6.6 -0.5 5.6 93 0.5 NNW 32 41 17 22 1006.3 1005.9 8.6
26/11:30am 6.1 -1.3 5.1 93 0.5 NNW 33 50 18 27 1006.9 1006.4 8.0
26/11:26am 6.0 -1.2 5.0 93 0.5 NNW 32 50 17 27 1007.2 1006.8 7.8
26/11:00am 5.8 -1.6 4.8 93 0.5 NNW 33 46 18 25 1007.7 1007.3 6.8
26/10:56am 5.8 -1.4 4.8 93 0.5 NNW 32 44 17 24 1007.9 1007.4 6.6
26/10:31am 5.5 -2.4 4.5 93 0.5 NNW 35 54 19 29 1008.1 1007.6 5.0
26/10:30am 5.5 -2.4 4.5 93 0.5 NNW 35 50 19 27 1008.1 1007.6 5.0
26/10:19am 5.3 -3.7 4.3 93 0.5 NNW 41 61 22 33 1008.2 1007.8 4.4
26/10:15am 5.2 -4.2 4.2 93 0.5 NNW 43 61 23 33 1007.9 1007.4 4.0
26/10:01am 5.6 -2.3 4.6 93 0.5 NNW 35 52 19 28 1008.3 1007.9 3.2
26/10:00am 5.6 -2.3 4.6 93 0.5 NNW 35 52 19 28 1008.4 1008.0 3.2
26/09:49am 5.7 -0.8 4.7 93 0.5 NNW 28 46 15 25 1008.5 1008.1 3.0
26/09:42am 5.7 0.3 4.7 93 0.5 NNW 22 33 12 18 1008.7 1008.3 3.0
26/09:30am 5.6 -0.5 4.6 93 0.5 NNW 26 35 14 19 1008.2 1007.8 2.8
26/09:24am 5.6 -0.5 4.6 93 0.5 NNW 26 35 14 19 1009.2 1008.8 2.4
26/09:05am 5.5 -1.0 4.5 93 0.5 NNW 28 37 15 20 1009.0 1008.5 0.4
26/09:00am 5.5 -1.0 4.5 93 0.5 NNW 28 44 15 24 1009.1 1008.7 10.0
26/08:56am 5.5 -1.4 4.5 93 0.5 NNW 30 44 16 24 1009.2 1008.8 9.6
26/08:46am 5.5 -0.7 4.5 93 0.5 NNW 26 35 14 19 1009.3 1008.9 8.8
26/08:37am 5.7 -0.8 4.7 93 0.5 NNW 28 41 15 22 1009.3 1008.9 8.0
26/08:30am 5.8 -0.3 4.8 93 0.5 NNW 26 32 14 17 1009.2 1008.8 7.6
26/08:28am 5.8 0.1 4.8 93 0.5 NNW 24 32 13 17 1009.1 1008.7 7.6
26/08:09am 5.9 1.0 4.9 93 0.5 N 20 30 11 16 1009.5 1009.1 7.4
26/08:00am 5.8 0.8 4.8 93 0.5 N 20 28 11 15 1009.3 1008.9 7.4
26/07:51am 5.8 0.8 4.8 93 0.5 N 20 26 11 14 1009.3 1008.9 7.4
26/07:37am 5.8 -0.3 4.8 93 0.5 N 26 35 14 19 1009.6 1009.2 7.2
26/07:30am 5.8 -0.7 4.8 93 0.5 NNW 28 39 15 21 1010.1 1009.7 7.0
26/07:00am 6.1 0.4 5.1 93 0.5 NNW 24 37 13 20 1010.6 1010.2 6.4
26/06:49am 6.1 0.8 5.1 93 0.5 NNW 22 28 12 15 1010.6 1010.2 6.0
26/06:33am 5.9 1.0 4.9 93 0.5 NNW 20 28 11 15 1010.5 1010.1 5.6
26/06:30am 5.9 1.0 4.9 93 0.5 NNW 20 28 11 15 1010.7 1010.3 5.6
26/06:00am 5.6 0.2 4.6 93 0.5 N 22 30 12 16 1010.7 1010.3 4.6
26/05:30am 5.6 0.6 4.6 93 0.5 NNW 20 30 11 16 1010.9 1010.6 4.0
26/05:13am 5.6 -0.5 4.6 93 0.5 NNW 26 37 14 20 1011.1 1010.8 3.8
26/05:00am 5.6 -0.2 4.6 93 0.5 NNW 24 35 13 19 1011.0 1010.7 3.6
26/04:30am 5.6 -0.2 4.6 93 0.5 NNW 24 33 13 18 1011.4 1011.0 2.8
26/04:00am 5.7 -0.8 4.7 93 0.5 NNW 28 37 15 20 1012.1 1011.8 2.4
26/03:31am 6.0 -0.8 5.0 93 0.5 NNW 30 39 16 21 1012.2 1011.9 2.0
26/03:30am 6.0 -0.8 5.0 93 0.5 NNW 30 39 16 21 1012.2 1011.9 2.0
26/03:00am 6.2 0.2 5.2 93 0.5 NNW 26 35 14 19 1012.6 1012.2 1.4
26/02:30am 6.4 0.8 5.4 93 0.5 N 24 32 13 17 1012.6 1012.2 0.8
26/02:00am 6.8 3.0 5.7 93 0.5 NNW 15 19 8 10 1013.0 1012.7 0.2
26/01:30am 7.3 2.7 5.6 89 0.8 NNW 19 28 10 15 1013.3 1013.0 0.0
26/01:00am 7.4 2.8 5.5 88 0.9 N 19 24 10 13 1012.7 1012.3 0.0
26/12:30am 7.5 2.7 5.5 87 0.9 NNW 20 24 11 13 1012.9 1012.6 0.0
26/12:00am 7.4 2.5 5.2 86 1.0 NNW 20 26 11 14 1013.4 1013.1 0.0
 
Date/Time
EST
Temp
°C
App
Temp
°C
Dew
Point
Rel
Hum
%
Delta-T
°C
Wind Press
QNH
hPa
Press
MSL
hPa
Rain
since 9 am
mm
Dir
 
Spd
km/h
Gust
km/h
Spd
kts
Gust
kts
25/11:30pm 7.6 2.9 5.1 84 1.2 NNW 19 24 10 13 1014.2 1013.9 0.0
25/11:00pm 7.9 3.2 5.2 83 1.3 NW 19 24 10 13 1014.9 1014.6 0.0
25/10:30pm 8.1 3.2 4.9 80 1.5 NW 20 28 11 15 1015.2 1014.9 0.0
25/10:00pm 7.9 3.5 5.0 82 1.4 NNW 17 22 9 12 1015.3 1015.0 0.0
25/09:30pm 7.7 3.5 5.8 88 0.9 NNW 17 24 9 13 1015.5 1015.3 0.0
25/09:00pm 6.9 3.8 5.5 91 0.7 NNE 11 13 6 7 1015.5 1015.3 0.0
25/08:30pm 6.8 4.1 5.6 92 0.6 N 9 13 5 7 1016.1 1015.8 0.0
25/08:00pm 6.6 3.7 4.6 87 0.9 N 9 11 5 6 1016.2 1015.9 0.0
25/07:30pm 6.8 4.7 5.6 92 0.6 NW 6 11 3 6 1016.1 1015.8 0.0
25/07:00pm 5.6 4.4 4.4 92 0.5 CALM 0 0 0 0 1016.6 1016.4 0.0
25/06:30pm 6.6 5.0 4.3 85 1.1 NW 2 9 1 5 1016.5 1016.3 0.0
25/06:00pm 6.5 4.1 4.5 87 0.9 N 6 7 3 4 1016.1 1015.8 0.0
25/05:30pm 7.0 5.8 4.5 84 1.2 CALM 0 0 0 0 1016.1 1015.8 0.0
25/05:00pm 7.8 5.5 4.6 80 1.5 WSW 6 7 3 4 1016.3 1016.0 0.0
25/04:30pm 9.1 5.9 5.1 76 1.9 SW 11 15 6 8 1016.3 1016.0 0.0
25/04:00pm 10.0 6.5 5.4 73 2.2 WSW 13 17 7 9 1016.3 1016.0 0.0
25/03:30pm 10.7 7.1 5.0 68 2.7 SSW 13 17 7 9 1016.1 1015.8 0.0
25/03:00pm 11.5 8.8 5.8 68 2.8 WSW 9 13 5 7 1016.2 1015.9 0.0
25/02:30pm 11.7 9.5 6.0 68 2.8 WSW 7 11 4 6 1016.1 1015.8 0.0
25/02:00pm 11.3 8.0 6.2 71 2.5 SSW 13 17 7 9 1016.4 1016.2 0.0
25/01:30pm 11.5 8.2 6.6 72 2.4 SW 13 17 7 9 1016.6 1016.4 0.0
25/01:00pm 11.3 9.1 6.2 71 2.5 W 7 11 4 6 1016.7 1016.5 0.0
25/12:30pm 11.4 8.5 6.7 73 2.4 SW 11 15 6 8 1017.2 1016.9 0.0
25/12:00pm 10.8 7.9 6.4 74 2.2 SW 11 17 6 9 1017.5 1017.3 0.0
25/11:30am 10.5 7.1 6.1 74 2.2 WSW 13 20 7 11 1018.4 1018.2 0.0
25/11:00am 9.5 7.3 6.0 79 1.7 SSW 7 13 4 7 1018.8 1018.6 0.0
25/10:30am 8.6 5.9 5.7 82 1.4 S 9 13 5 7 1019.0 1018.8 0.0
25/10:00am 7.7 4.6 5.7 87 1.0 SSW 11 17 6 9 1019.3 1019.1 0.0
25/09:58am 7.7 4.3 5.7 87 1.0 SSW 13 17 7 9 1019.3 1019.1 0.0
25/09:30am 7.3 3.9 5.9 91 0.7 SSW 13 20 7 11 1019.4 1019.2 0.0
25/09:00am 6.8 2.2 5.7 93 0.5 SW 19 24 10 13 1019.6 1019.4 0.2
25/08:30am 6.1 2.1 5.1 93 0.5 SW 15 22 8 12 1019.9 1019.7 0.2
25/08:00am 5.5 0.7 4.5 93 0.5 SW 19 26 10 14 1019.5 1019.3 0.2
25/07:44am 4.7 -0.3 3.7 93 0.4 SW 19 24 10 13 1019.5 1019.3 0.2
25/07:30am 3.9 -0.8 2.9 93 0.4 SW 17 22 9 12 1019.3 1019.1 0.2
25/07:00am 0.0 -3.8 -1.0 93 0.4 SSW 9 11 5 6 1019.0 1018.8 0.0
25/06:30am 0.0 -4.2 -1.0 93 0.4 SSW 11 15 6 8 1019.0 1018.8 0.0
25/06:19am 1.3 -2.7 0.3 93 0.4 SW 11 13 6 7 1019.0 1018.8 0.0
25/06:00am 1.0 -1.4 0.0 93 0.4 S 2 9 1 5 1019.0 1018.8 0.0
25/05:30am 0.9 -2.2 -0.1 93 0.4 SE 6 7 3 4 1018.6 1018.4 0.0
25/05:26am 1.2 -1.9 0.2 93 0.4 SE 6 7 3 4 1018.5 1018.3 0.0
25/05:00am 2.6 -0.5 1.6 93 0.4 S 7 9 4 5 1018.3 1018.1 0.0
25/04:30am 3.8 -1.0 2.8 93 0.4 SW 17 20 9 11 1018.5 1018.3 0.0
25/04:00am 4.1 -0.3 2.9 92 0.5 SW 15 19 8 10 1018.7 1018.5 0.0
25/03:30am 4.7 0.4 3.5 92 0.5 SW 15 20 8 11 1018.9 1018.7 0.0
25/03:00am 5.0 -0.2 3.7 91 0.6 SW 20 28 11 15 1019.1 1019.0 0.0
25/02:30am 5.2 -0.3 3.9 91 0.6 SW 22 30 12 16 1019.1 1019.0 0.0
25/02:00am 5.5 -0.8 4.0 90 0.7 SSW 26 33 14 18 1019.3 1019.1 0.0
25/01:30am 5.4 -0.5 3.9 90 0.7 SSW 24 33 13 18 1019.4 1019.2 0.0
25/01:00am 5.3 -0.6 4.1 92 0.5 SW 24 32 13 17 1019.8 1019.6 0.0
25/12:30am 5.3 -0.2 4.0 91 0.6 SSW 22 30 12 16 1020.0 1019.9 0.0
25/12:00am 5.1 -0.4 3.8 91 0.6 SSW 22 28 12 15 1020.4 1020.2 0.0
 
Date/Time
EST
Temp
°C
App
Temp
°C
Dew
Point
Rel
Hum
%
Delta-T
°C
Wind Press
QNH
hPa
Press
MSL
hPa
Rain
since 9 am
mm
Dir
 
Spd
km/h
Gust
km/h
Spd
kts
Gust
kts
24/11:30pm 5.5 0.0 4.0 90 0.7 SW 22 28 12 15 1020.6 1020.4 0.0
24/11:00pm 5.4 0.3 3.9 90 0.7 SW 20 28 11 15 1020.6 1020.4 0.0
24/10:30pm 5.7 0.2 4.0 89 0.8 SW 22 30 12 16 1020.6 1020.4 0.0

Other Formats:

Comma delimited format used in spreadsheet applications
http://www.bom.gov.au/fwo/IDN60801/IDN60801.95726.axf

JavaScript Object Notation format (JSON) in row-major order
http://www.bom.gov.au/fwo/IDN60801/IDN60801.95726.json